createdAt,value
2019-01-20T00:00:08.839Z,20.37
2019-01-20T00:02:37.432Z,19.70
2019-01-20T00:05:06.689Z,20.87
2019-01-20T00:07:35.285Z,19.20
2019-01-20T00:10:05.080Z,16.77
2019-01-20T00:12:33.763Z,15.37
2019-01-20T00:15:02.358Z,15.20
2019-01-20T00:17:30.934Z,14.70
2019-01-20T00:19:59.675Z,15.47
2019-01-20T00:22:28.350Z,14.27
2019-01-20T00:24:56.978Z,14.13
2019-01-20T00:27:25.729Z,13.43
2019-01-20T00:29:54.333Z,14.80
2019-01-20T00:32:22.926Z,14.67
2019-01-20T00:34:51.547Z,14.87
2019-01-20T00:37:20.138Z,14.10
2019-01-20T00:39:48.744Z,13.27
2019-01-20T00:42:17.364Z,13.70
2019-01-20T00:44:45.967Z,12.33
2019-01-20T00:47:14.552Z,12.53
2019-01-20T00:49:43.188Z,13.73
2019-01-20T00:52:11.783Z,12.23
2019-01-20T00:54:40.356Z,13.03
2019-01-20T00:57:08.954Z,13.23
2019-01-20T00:59:37.568Z,12.70
2019-01-20T01:02:06.163Z,12.20
2019-01-20T01:04:34.778Z,13.10
2019-01-20T01:07:03.472Z,12.43
2019-01-20T01:09:32.068Z,12.77
2019-01-20T01:12:00.692Z,12.60
2019-01-20T01:14:29.290Z,12.90
2019-01-20T01:16:57.884Z,12.67
2019-01-20T01:19:26.514Z,11.73
2019-01-20T01:21:55.130Z,12.17
2019-01-20T01:24:23.746Z,10.97
2019-01-20T01:26:52.372Z,12.00
2019-01-20T01:29:20.967Z,11.83
2019-01-20T01:31:49.633Z,11.57
2019-01-20T01:34:18.228Z,12.10
2019-01-20T01:36:46.806Z,11.70
2019-01-20T01:39:15.407Z,11.57
2019-01-20T01:41:44.005Z,10.73
2019-01-20T01:44:12.615Z,11.23
2019-01-20T01:46:41.205Z,11.10
2019-01-20T01:49:09.823Z,12.63
2019-01-20T01:51:38.416Z,11.43
2019-01-20T01:54:07.024Z,12.57
2019-01-20T01:56:35.642Z,12.73
2019-01-20T01:59:04.336Z,13.37
2019-01-20T02:01:32.951Z,12.77
2019-01-20T02:04:01.588Z,13.40
2019-01-20T02:06:30.171Z,12.60
2019-01-20T02:08:58.818Z,11.53
2019-01-20T02:11:27.454Z,12.23
2019-01-20T02:13:56.045Z,11.67
2019-01-20T02:16:24.635Z,11.57
2019-01-20T02:18:53.266Z,12.80
2019-01-20T02:21:21.865Z,11.40
2019-01-20T02:23:50.455Z,12.80
2019-01-20T02:26:19.092Z,11.43
2019-01-20T02:28:47.692Z,11.47
2019-01-20T02:31:16.265Z,10.40
2019-01-20T02:33:44.894Z,11.23
2019-01-20T02:36:13.488Z,10.90
2019-01-20T02:38:42.082Z,11.07
2019-01-20T02:41:10.695Z,10.20
2019-01-20T02:43:39.300Z,10.43
2019-01-20T02:46:07.881Z,10.60
2019-01-20T02:48:36.500Z,10.87
2019-01-20T02:51:05.092Z,9.80
2019-01-20T02:53:33.753Z,10.33
2019-01-20T02:56:02.361Z,9.60
2019-01-20T02:58:30.963Z,10.13
2019-01-20T03:00:59.562Z,10.20
2019-01-20T03:03:28.169Z,9.57
2019-01-20T03:05:56.757Z,9.43
2019-01-20T03:08:25.560Z,9.23
2019-01-20T03:10:54.843Z,9.27
2019-01-20T03:13:23.438Z,9.73
2019-01-20T03:15:52.409Z,9.57
2019-01-20T03:18:21.053Z,9.83
2019-01-20T03:20:49.667Z,9.13
2019-01-20T03:23:18.273Z,10.57
2019-01-20T03:25:46.866Z,9.13
2019-01-20T03:28:15.457Z,9.77
2019-01-20T03:30:44.048Z,9.67
2019-01-20T03:33:12.652Z,10.57
2019-01-20T03:35:41.231Z,10.33
2019-01-20T03:38:09.861Z,10.40
2019-01-20T03:40:38.455Z,10.27
2019-01-20T03:43:07.062Z,10.07
2019-01-20T03:45:35.678Z,10.33
2019-01-20T03:48:04.262Z,10.27
2019-01-20T03:50:32.886Z,10.43
2019-01-20T03:53:01.501Z,9.87
2019-01-20T03:55:30.090Z,10.50
2019-01-20T03:57:58.683Z,9.83
2019-01-20T04:00:27.298Z,9.87
2019-01-20T04:03:05.039Z,10.30
2019-01-20T04:05:33.666Z,10.60
2019-01-20T04:08:02.276Z,10.10
2019-01-20T04:10:30.927Z,9.30
2019-01-20T04:12:59.727Z,9.13
2019-01-20T04:15:28.324Z,9.57
2019-01-20T04:17:56.931Z,8.57
2019-01-20T04:20:25.604Z,8.20
2019-01-20T04:22:54.261Z,8.57
2019-01-20T04:25:22.833Z,8.20
2019-01-20T04:27:51.443Z,9.00
2019-01-20T04:30:20.306Z,8.23
2019-01-20T04:32:49.166Z,7.93
2019-01-20T04:35:17.794Z,8.37
2019-01-20T04:37:46.368Z,8.23
2019-01-20T04:40:16.182Z,7.83
2019-01-20T04:42:44.814Z,8.43
2019-01-20T04:45:13.549Z,8.30
2019-01-20T04:47:42.139Z,8.00
2019-01-20T04:50:12.230Z,8.50
2019-01-20T04:52:40.908Z,8.60
2019-01-20T04:55:10.264Z,7.90
2019-01-20T04:57:39.072Z,7.67
2019-01-20T05:00:09.588Z,8.07
2019-01-20T05:02:38.182Z,8.80
2019-01-20T05:05:06.788Z,8.23
2019-01-20T05:07:35.376Z,9.03
2019-01-20T05:10:04.656Z,7.70
2019-01-20T05:12:37.761Z,8.10
2019-01-20T05:15:03.776Z,8.37
2019-01-20T05:17:32.360Z,8.03
2019-01-20T05:20:00.982Z,7.33
2019-01-20T05:22:29.572Z,7.23
2019-01-20T05:24:58.138Z,7.90
2019-01-20T05:27:26.764Z,8.30
2019-01-20T05:29:55.332Z,7.27
2019-01-20T05:32:23.920Z,7.03
2019-01-20T05:34:52.544Z,7.53
2019-01-20T05:37:21.118Z,7.17
2019-01-20T05:39:49.704Z,7.43
2019-01-20T05:42:18.318Z,7.70
2019-01-20T05:44:46.894Z,6.77
2019-01-20T05:47:15.494Z,7.70
2019-01-20T05:49:44.100Z,7.30
2019-01-20T05:52:12.676Z,7.00
2019-01-20T05:54:41.265Z,7.53
2019-01-20T05:57:09.886Z,7.07
2019-01-20T05:59:38.458Z,7.10
2019-01-20T06:02:07.046Z,7.43
2019-01-20T06:04:35.667Z,7.47
2019-01-20T06:07:04.268Z,6.77
2019-01-20T06:09:32.840Z,7.43
2019-01-20T06:12:01.464Z,7.53
2019-01-20T06:14:30.032Z,7.37
2019-01-20T06:16:58.632Z,6.00
2019-01-20T06:19:27.256Z,6.23
2019-01-20T06:21:55.824Z,5.83
2019-01-20T06:24:24.473Z,6.40
2019-01-20T06:26:53.098Z,7.40
2019-01-20T06:29:21.686Z,6.17
2019-01-20T06:31:50.278Z,6.50
2019-01-20T06:34:18.894Z,6.30
2019-01-20T06:36:47.470Z,6.07
2019-01-20T06:39:16.059Z,6.33
2019-01-20T06:41:44.672Z,6.30
2019-01-20T06:44:13.254Z,6.70
2019-01-20T06:46:41.904Z,5.97
2019-01-20T06:49:10.504Z,6.80
2019-01-20T06:51:39.103Z,6.40
2019-01-20T06:54:07.688Z,5.80
2019-01-20T06:56:36.426Z,5.70
2019-01-20T06:59:04.997Z,5.90
2019-01-20T07:01:33.588Z,5.90
2019-01-20T07:04:02.192Z,6.40
2019-01-20T07:06:30.880Z,6.00
2019-01-20T07:08:59.461Z,6.03
2019-01-20T07:11:28.061Z,5.03
2019-01-20T07:13:56.647Z,5.63
2019-01-20T07:16:25.241Z,5.30
2019-01-20T07:18:53.897Z,5.27
2019-01-20T07:21:22.490Z,5.30
2019-01-20T07:23:51.069Z,5.10
2019-01-20T07:26:19.675Z,4.83
2019-01-20T07:28:48.287Z,4.87
2019-01-20T07:31:16.865Z,4.60
2019-01-20T07:33:45.492Z,5.57
2019-01-20T07:36:14.074Z,6.00
2019-01-20T07:38:42.649Z,5.20
2019-01-20T07:41:11.262Z,4.63
2019-01-20T07:43:39.920Z,5.30
2019-01-20T07:46:08.492Z,4.53
2019-01-20T07:48:37.101Z,4.40
2019-01-20T07:51:05.851Z,4.90
2019-01-20T07:53:34.451Z,4.73
2019-01-20T07:56:03.049Z,4.37
2019-01-20T07:58:31.643Z,4.43
2019-01-20T08:01:00.235Z,4.30
2019-01-20T08:03:28.859Z,4.90
2019-01-20T08:05:57.455Z,4.40
2019-01-20T08:08:26.097Z,4.60
2019-01-20T08:10:54.691Z,4.67
2019-01-20T08:13:24.363Z,4.37
2019-01-20T08:15:53.516Z,3.70
2019-01-20T08:18:22.119Z,4.50
2019-01-20T08:20:50.708Z,3.97
2019-01-20T08:23:19.287Z,4.07
2019-01-20T08:25:47.987Z,4.10
2019-01-20T08:28:16.581Z,4.03
2019-01-20T08:30:45.193Z,4.20
2019-01-20T08:33:13.845Z,4.30
2019-01-20T08:35:42.423Z,3.90
2019-01-20T08:38:11.019Z,3.53
2019-01-20T08:40:39.632Z,3.40
2019-01-20T08:43:08.237Z,3.87
2019-01-20T08:46:04.996Z,4.47
2019-01-20T08:48:33.600Z,4.23
2019-01-20T08:51:02.277Z,4.17
2019-01-20T08:53:30.897Z,3.50
2019-01-20T08:55:59.491Z,3.80
2019-01-20T08:58:28.074Z,4.53
2019-01-20T09:00:56.683Z,4.37
2019-01-20T09:03:25.266Z,4.30
2019-01-20T09:05:53.860Z,3.80
2019-01-20T09:08:22.524Z,4.23
2019-01-20T09:10:51.109Z,4.63
2019-01-20T09:13:20.669Z,4.63
2019-01-20T09:15:49.380Z,4.57
2019-01-20T09:18:17.975Z,5.90
2019-01-20T09:20:46.568Z,5.07
2019-01-20T09:23:15.204Z,5.03
2019-01-20T09:25:43.780Z,4.60
2019-01-20T09:28:12.370Z,5.00
2019-01-20T09:30:40.990Z,5.10
2019-01-20T09:33:09.572Z,5.20
2019-01-20T09:35:38.252Z,4.80
2019-01-20T09:38:06.856Z,5.27
2019-01-20T09:40:35.444Z,4.50
2019-01-20T09:43:04.697Z,5.77
2019-01-20T09:45:34.017Z,6.70
2019-01-20T09:48:02.634Z,5.97
2019-01-20T09:50:31.217Z,6.17
2019-01-20T09:52:59.830Z,5.10
2019-01-20T09:55:28.431Z,6.17
2019-01-20T09:57:57.038Z,5.30
2019-01-20T10:00:26.610Z,6.70
2019-01-20T10:02:55.285Z,5.83
2019-01-20T10:05:23.900Z,6.43
2019-01-20T10:07:52.547Z,6.20
2019-01-20T10:10:21.184Z,5.53
2019-01-20T10:12:49.773Z,6.63
2019-01-20T10:15:18.694Z,6.50
2019-01-20T10:17:47.266Z,6.43
2019-01-20T10:20:25.940Z,5.93
2019-01-20T10:22:54.513Z,5.13
2019-01-20T10:25:23.096Z,5.40
2019-01-20T10:27:51.710Z,5.53
2019-01-20T10:30:24.464Z,6.57
2019-01-20T10:32:53.036Z,5.80
2019-01-20T10:35:24.860Z,5.40
2019-01-20T10:37:54.135Z,5.30
2019-01-20T10:40:22.708Z,4.27
2019-01-20T10:42:51.305Z,4.87
2019-01-20T10:45:19.884Z,4.97
2019-01-20T10:47:48.476Z,4.43
2019-01-20T10:50:17.223Z,5.20
2019-01-20T10:52:45.826Z,4.77
2019-01-20T10:55:14.396Z,4.83
2019-01-20T10:57:42.985Z,4.87
2019-01-20T11:00:13.575Z,3.90
2019-01-20T11:02:42.165Z,4.07
2019-01-20T11:05:11.011Z,4.20
2019-01-20T11:07:39.605Z,4.20
2019-01-20T11:10:08.399Z,4.17
2019-01-20T11:12:37.035Z,4.90
2019-01-20T11:15:06.000Z,4.03
2019-01-20T11:17:34.571Z,4.93
2019-01-20T11:20:03.310Z,4.23
2019-01-20T11:22:31.895Z,4.70
2019-01-20T11:25:00.481Z,4.87
2019-01-20T11:27:29.086Z,4.57
2019-01-20T11:29:57.719Z,4.37
2019-01-20T11:32:26.296Z,5.23
2019-01-20T11:34:54.911Z,5.83
2019-01-20T11:37:23.492Z,5.57
2019-01-20T11:39:52.083Z,5.30
2019-01-20T11:42:20.683Z,5.10
2019-01-20T11:44:49.264Z,4.63
2019-01-20T11:47:17.857Z,4.93
2019-01-20T11:49:46.471Z,5.93
2019-01-20T11:52:15.107Z,6.07
2019-01-20T11:54:43.713Z,6.63
2019-01-20T11:57:12.303Z,5.50
2019-01-20T11:59:40.894Z,7.43
2019-01-20T12:02:09.508Z,6.80
2019-01-20T12:04:38.090Z,6.00
2019-01-20T12:07:06.661Z,5.17
2019-01-20T12:09:35.273Z,6.57
2019-01-20T12:12:03.951Z,6.50
2019-01-20T12:14:32.581Z,7.43
2019-01-20T12:17:01.193Z,8.13
2019-01-20T12:19:29.774Z,7.33
2019-01-20T12:21:58.353Z,7.20
2019-01-20T12:24:26.996Z,8.90
2019-01-20T12:26:55.590Z,7.33
2019-01-20T12:29:25.644Z,7.00
2019-01-20T12:31:54.475Z,8.97
2019-01-20T12:34:23.375Z,8.40
2019-01-20T12:36:51.971Z,9.07
2019-01-20T12:39:20.571Z,8.17
2019-01-20T12:41:49.151Z,7.73
2019-01-20T12:44:17.738Z,7.07
2019-01-20T12:46:46.336Z,7.30
2019-01-20T12:49:14.919Z,7.73
2019-01-20T12:51:43.502Z,6.00
2019-01-20T12:54:12.099Z,7.57
2019-01-20T12:56:40.689Z,7.67
2019-01-20T12:59:09.275Z,7.20
2019-01-20T13:01:37.879Z,9.07
2019-01-20T13:04:06.443Z,8.27
2019-01-20T13:06:35.025Z,8.57
2019-01-20T13:09:05.279Z,8.47
2019-01-20T13:11:33.852Z,8.43
2019-01-20T13:14:02.426Z,8.90
2019-01-20T13:16:31.089Z,8.77
2019-01-20T13:18:59.690Z,8.17
2019-01-20T13:21:28.316Z,8.73
2019-01-20T13:23:56.895Z,9.73
2019-01-20T13:26:25.487Z,8.70
2019-01-20T13:28:54.111Z,7.70
2019-01-20T13:31:22.676Z,8.60
2019-01-20T13:33:51.260Z,7.97
2019-01-20T13:36:19.859Z,6.67
2019-01-20T13:38:48.448Z,8.97
2019-01-20T13:41:22.026Z,9.67
2019-01-20T13:43:50.636Z,7.97
2019-01-20T13:46:19.232Z,8.63
2019-01-20T13:48:47.838Z,7.60
2019-01-20T13:51:16.430Z,8.50
2019-01-20T13:53:45.036Z,9.10
2019-01-20T13:56:13.686Z,8.13
2019-01-20T13:58:42.268Z,8.50
2019-01-20T14:01:10.929Z,8.57
2019-01-20T14:03:39.536Z,8.60
2019-01-20T14:06:08.111Z,8.30
2019-01-20T14:08:43.952Z,9.40
2019-01-20T14:11:06.984Z,8.93
2019-01-20T14:13:35.571Z,9.17
2019-01-20T14:16:04.324Z,8.70
2019-01-20T14:18:33.044Z,9.07
2019-01-20T14:21:01.644Z,8.70
2019-01-20T14:23:30.224Z,10.70
2019-01-20T14:25:58.893Z,8.17
2019-01-20T14:28:27.544Z,9.63
2019-01-20T14:30:56.136Z,10.67
2019-01-20T14:33:24.749Z,11.10
2019-01-20T14:35:53.361Z,9.67
2019-01-20T14:38:21.942Z,10.23
2019-01-20T14:40:50.574Z,10.57
2019-01-20T14:43:19.168Z,10.70
2019-01-20T14:45:47.766Z,10.27
2019-01-20T14:48:16.382Z,10.40
2019-01-20T14:50:44.988Z,10.97
2019-01-20T14:53:13.598Z,13.63
2019-01-20T14:55:42.255Z,11.23
2019-01-20T14:58:10.964Z,11.13
2019-01-20T15:00:39.554Z,13.37
2019-01-20T15:03:08.287Z,13.97
2019-01-20T15:05:36.932Z,15.87
2019-01-20T15:08:06.038Z,13.77
2019-01-20T15:10:34.710Z,15.50
2019-01-20T15:13:03.715Z,20.97
2019-01-20T15:15:33.831Z,17.07
2019-01-20T15:18:02.500Z,11.83
2019-01-20T15:20:31.186Z,10.03
2019-01-20T15:22:59.833Z,9.47
2019-01-20T15:25:28.499Z,11.07
2019-01-20T15:27:57.112Z,37.50
2019-01-20T15:30:26.870Z,13.10
2019-01-20T15:32:55.771Z,10.00
2019-01-20T15:35:24.431Z,10.10
2019-01-20T15:37:53.024Z,10.50
2019-01-20T15:40:21.906Z,12.23
2019-01-20T15:42:50.570Z,12.33
2019-01-20T15:45:19.775Z,11.27
2019-01-20T15:47:48.411Z,10.40
2019-01-20T15:50:21.162Z,9.97
2019-01-20T15:52:49.813Z,11.53
2019-01-20T15:55:18.513Z,15.33
2019-01-20T15:57:47.103Z,12.00
2019-01-20T16:00:17.031Z,19.37
2019-01-20T16:02:45.639Z,18.23
2019-01-20T16:05:14.412Z,12.10
2019-01-20T16:07:43.009Z,12.60
2019-01-20T16:10:12.141Z,12.73
2019-01-20T16:12:40.795Z,12.20
2019-01-20T16:15:11.255Z,12.03
2019-01-20T16:17:39.891Z,11.07
2019-01-20T16:20:08.986Z,11.60
2019-01-20T16:22:37.648Z,11.30
2019-01-20T16:25:09.201Z,12.23
2019-01-20T16:27:38.199Z,13.63
2019-01-20T16:30:07.826Z,12.80
2019-01-20T16:32:36.451Z,12.07
2019-01-20T16:35:05.277Z,10.77
2019-01-20T16:37:33.881Z,10.90
2019-01-20T16:40:02.609Z,10.53
2019-01-20T16:42:31.221Z,11.00
2019-01-20T16:44:59.921Z,11.93
2019-01-20T16:47:28.654Z,11.80
2019-01-20T16:49:57.467Z,14.50
2019-01-20T16:52:26.124Z,14.07
2019-01-20T16:54:54.844Z,12.83
2019-01-20T16:57:23.436Z,17.63
2019-01-20T16:59:52.107Z,10.83
2019-01-20T17:02:20.717Z,11.10
2019-01-20T17:04:49.329Z,11.50
2019-01-20T17:07:18.007Z,10.27
2019-01-20T17:09:46.652Z,14.83
2019-01-20T17:12:15.345Z,15.90
2019-01-20T17:14:44.023Z,12.77
2019-01-20T17:17:12.730Z,11.40
2019-01-20T17:19:41.407Z,15.67
2019-01-20T17:22:10.099Z,16.50
2019-01-20T17:24:38.838Z,17.03
2019-01-20T17:27:07.494Z,13.00
2019-01-20T17:29:36.149Z,12.83
2019-01-20T17:32:04.939Z,13.33
2019-01-20T17:34:33.640Z,12.70
2019-01-20T17:37:02.327Z,13.23
2019-01-20T17:39:31.017Z,13.00
2019-01-20T17:41:59.682Z,14.93
2019-01-20T17:44:28.364Z,15.03
2019-01-20T17:46:57.059Z,14.20
2019-01-20T17:49:27.584Z,15.10
2019-01-20T17:51:56.273Z,13.63
2019-01-20T17:54:24.985Z,14.00
2019-01-20T17:56:53.648Z,13.70
2019-01-20T17:59:22.325Z,14.17
2019-01-20T18:01:51.023Z,14.30
2019-01-20T18:04:19.651Z,14.80
2019-01-20T18:06:48.315Z,13.67
2019-01-20T18:09:17.021Z,13.03
2019-01-20T18:11:45.692Z,15.43
2019-01-20T18:14:14.377Z,15.13
2019-01-20T18:16:43.085Z,15.40
2019-01-20T18:19:11.689Z,15.07
2019-01-20T18:21:40.287Z,15.07
2019-01-20T18:24:08.903Z,15.67
2019-01-20T18:26:37.513Z,14.47
2019-01-20T18:29:06.189Z,15.33
2019-01-20T18:31:34.837Z,16.77
2019-01-20T18:34:03.427Z,17.87
2019-01-20T18:36:32.056Z,14.97
2019-01-20T18:39:00.649Z,16.23
2019-01-20T18:41:29.223Z,16.03
2019-01-20T18:43:57.829Z,16.00
2019-01-20T18:46:26.431Z,16.07
2019-01-20T18:48:55.030Z,15.63
2019-01-20T18:51:23.711Z,14.83
2019-01-20T18:53:52.322Z,16.27
2019-01-20T18:56:20.928Z,15.70
2019-01-20T18:58:49.551Z,16.03
2019-01-20T19:01:18.168Z,16.97
2019-01-20T19:03:46.762Z,14.77
2019-01-20T19:06:15.413Z,15.77
2019-01-20T19:08:44.006Z,15.30
2019-01-20T19:11:12.754Z,17.17
2019-01-20T19:13:41.444Z,15.90
2019-01-20T19:16:10.041Z,15.53
2019-01-20T19:18:38.658Z,16.23
2019-01-20T19:21:07.335Z,16.03
2019-01-20T19:23:35.992Z,16.60
2019-01-20T19:26:04.641Z,15.97
2019-01-20T19:28:33.294Z,18.50
2019-01-20T19:31:01.906Z,18.07
2019-01-20T19:33:30.546Z,18.13
2019-01-20T19:35:59.180Z,20.03
2019-01-20T19:38:27.800Z,18.20
2019-01-20T19:40:56.409Z,18.00
2019-01-20T19:43:25.058Z,17.03
2019-01-20T19:45:53.655Z,18.37
2019-01-20T19:48:22.244Z,20.13
2019-01-20T19:50:50.872Z,25.60
2019-01-20T19:53:19.488Z,20.03
2019-01-20T19:55:48.090Z,18.97
2019-01-20T19:58:16.720Z,17.37
2019-01-20T20:00:45.344Z,17.10
2019-01-20T20:03:13.958Z,16.63
2019-01-20T20:05:42.586Z,15.90
2019-01-20T20:08:11.172Z,17.77
2019-01-20T20:10:39.785Z,17.20
2019-01-20T20:13:08.421Z,17.30
2019-01-20T20:15:37.022Z,19.03
2019-01-20T20:18:05.866Z,18.33
2019-01-20T20:20:34.514Z,16.97
2019-01-20T20:23:03.169Z,18.40
2019-01-20T20:25:31.759Z,17.77
2019-01-20T20:28:00.395Z,17.37
2019-01-20T20:30:30.131Z,16.90
2019-01-20T20:32:58.739Z,15.73
2019-01-20T20:35:27.694Z,18.10
2019-01-20T20:37:56.308Z,16.97
2019-01-20T20:40:24.963Z,16.10
2019-01-20T20:42:53.585Z,17.00
2019-01-20T20:45:22.597Z,17.83
2019-01-20T20:47:51.166Z,15.67
2019-01-20T20:50:19.761Z,15.57
2019-01-20T20:52:48.371Z,14.50
2019-01-20T20:55:17.084Z,15.10
2019-01-20T20:57:45.685Z,14.97
2019-01-20T21:00:18.569Z,15.40
2019-01-20T21:02:47.160Z,15.07
2019-01-20T21:05:15.784Z,16.10
2019-01-20T21:07:44.404Z,16.87
2019-01-20T21:10:13.933Z,14.93
2019-01-20T21:12:42.575Z,18.00
2019-01-20T21:15:12.133Z,16.13
2019-01-20T21:17:47.921Z,16.60
2019-01-20T21:20:12.844Z,16.80
2019-01-20T21:22:41.447Z,17.77
2019-01-20T21:25:10.487Z,17.43
2019-01-20T21:27:39.141Z,18.37
2019-01-20T21:30:09.755Z,17.77
2019-01-20T21:32:38.367Z,17.00
2019-01-20T21:35:07.139Z,16.87
2019-01-20T21:37:36.629Z,17.70
2019-01-20T21:40:05.652Z,17.73
2019-01-20T21:42:34.306Z,16.97
2019-01-20T21:45:02.923Z,17.23
2019-01-20T21:47:31.536Z,16.33
2019-01-20T21:50:00.175Z,18.00
2019-01-20T21:52:28.830Z,18.00
2019-01-20T21:54:57.439Z,19.17
2019-01-20T21:57:26.099Z,19.83
2019-01-20T21:59:54.767Z,17.90
2019-01-20T22:02:23.363Z,19.73
2019-01-20T22:04:51.977Z,17.97
2019-01-20T22:07:20.595Z,18.53
2019-01-20T22:09:49.208Z,17.17
2019-01-20T22:12:17.835Z,18.17
2019-01-20T22:14:46.441Z,18.07
2019-01-20T22:17:15.067Z,18.60
2019-01-20T22:19:43.697Z,18.67
2019-01-20T22:22:12.317Z,17.67
2019-01-20T22:24:40.915Z,16.43
2019-01-20T22:27:09.527Z,17.17
2019-01-20T22:29:38.122Z,17.77
2019-01-20T22:32:06.741Z,18.03
2019-01-20T22:34:35.363Z,17.97
2019-01-20T22:37:03.995Z,18.23
2019-01-20T22:39:32.635Z,18.37
2019-01-20T22:42:01.279Z,17.40
2019-01-20T22:44:29.952Z,18.70
2019-01-20T22:47:00.222Z,18.27
2019-01-20T22:49:28.883Z,18.67
2019-01-20T22:51:57.496Z,18.80
2019-01-20T22:54:26.099Z,18.50
2019-01-20T22:56:54.768Z,17.13
2019-01-20T22:59:23.358Z,19.13
2019-01-20T23:01:51.939Z,18.07
2019-01-20T23:04:20.568Z,19.13
2019-01-20T23:06:49.166Z,19.50
2019-01-20T23:09:17.769Z,19.30
2019-01-20T23:11:46.384Z,19.53
2019-01-20T23:14:14.982Z,18.13
2019-01-20T23:16:43.608Z,18.53
2019-01-20T23:19:12.194Z,19.50
2019-01-20T23:21:40.814Z,18.60
2019-01-20T23:24:09.452Z,18.50
2019-01-20T23:26:38.042Z,18.93
2019-01-20T23:29:06.638Z,19.97
2019-01-20T23:31:35.268Z,20.43
2019-01-20T23:34:04.176Z,18.90
2019-01-20T23:36:32.776Z,18.93
2019-01-20T23:39:01.388Z,18.77
2019-01-20T23:41:30.022Z,19.57
2019-01-20T23:43:58.700Z,18.03
2019-01-20T23:46:27.322Z,20.40
2019-01-20T23:48:55.926Z,20.37
2019-01-20T23:51:24.579Z,19.73
2019-01-20T23:53:53.176Z,19.47
2019-01-20T23:56:21.778Z,20.60
2019-01-20T23:58:50.404Z,19.83
